Time;durP1;ratioP1;P1;durP2;ratioP2;P2;SDS_P1;SDS_P2;PMS_P1;PMS_P2;Temp;Humidity;BMP_temperature;BMP_pressure;BME280_temperature;BME280_humidity;BME280_pressure;Samples;Min_cycle;Max_cycle;Signal;HPM_P1;HPM_P2
2023/09/08 00:02:25;;;;;;;16.15;11.52;;;20.10;99.90;;;;;;4975993;28;20725;-65
2023/09/08 00:04:51;;;;;;;14.27;10.73;;;20.10;99.90;;;;;;4973975;28;20201;-66
2023/09/08 00:07:17;;;;;;;18.35;11.50;;;20.00;99.90;;;;;;4963241;28;20240;-67
2023/09/08 00:09:43;;;;;;;18.48;11.20;;;20.00;99.90;;;;;;4976162;28;20190;-67
2023/09/08 00:12:09;;;;;;;15.93;11.38;;;20.00;99.90;;;;;;4975528;28;20709;-66
2023/09/08 00:14:35;;;;;;;27.05;11.70;;;19.90;99.90;;;;;;4973491;28;20190;-68
2023/09/08 00:17:01;;;;;;;16.73;11.57;;;19.90;99.90;;;;;;4963707;28;20547;-66
2023/09/08 00:19:27;;;;;;;19.10;11.90;;;19.90;99.90;;;;;;4973861;28;20190;-67
2023/09/08 00:21:52;;;;;;;14.65;11.30;;;19.90;99.90;;;;;;4973792;28;20217;-67
2023/09/08 00:24:18;;;;;;;17.17;11.48;;;19.80;99.90;;;;;;4964782;28;20198;-66
2023/09/08 00:26:45;;;;;;;20.08;11.95;;;19.80;99.90;;;;;;4968770;28;20186;-65
2023/09/08 00:29:11;;;;;;;15.98;11.68;;;19.80;99.90;;;;;;4975757;28;20240;-67
2023/09/08 00:31:36;;;;;;;22.25;12.38;;;19.70;99.90;;;;;;4972365;28;20198;-66
2023/09/08 00:34:02;;;;;;;16.17;11.50;;;19.70;99.90;;;;;;4974641;28;20639;-65
2023/09/08 00:36:28;;;;;;;16.52;12.40;;;19.60;99.90;;;;;;4974109;28;20290;-67
2023/09/08 00:38:54;;;;;;;19.52;12.02;;;19.60;99.90;;;;;;4964677;28;21080;-66
2023/09/08 00:41:20;;;;;;;19.50;12.43;;;19.60;99.90;;;;;;4973832;28;20214;-66
2023/09/08 00:43:46;;;;;;;20.02;13.02;;;19.60;99.90;;;;;;4973020;28;20225;-66
2023/09/08 00:46:12;;;;;;;18.38;12.98;;;19.50;99.90;;;;;;4974509;28;20254;-66
2023/09/08 00:48:38;;;;;;;23.80;12.90;;;19.50;99.90;;;;;;4966815;28;20209;-66
2023/09/08 00:51:07;;;;;;;18.42;12.45;;;19.50;99.90;;;;;;4970615;28;20198;-66
2023/09/08 00:53:34;;;;;;;17.13;12.18;;;19.40;99.90;;;;;;4966309;28;20182;-67
2023/09/08 00:56:00;;;;;;;17.42;12.52;;;19.40;99.90;;;;;;4974851;28;20646;-66
2023/09/08 00:58:26;;;;;;;19.75;11.90;;;19.40;99.90;;;;;;4964201;28;20249;-65
2023/09/08 01:00:53;;;;;;;14.10;11.40;;;19.30;99.90;;;;;;4972476;28;20671;-64
2023/09/08 01:03:20;;;;;;;18.55;11.77;;;19.30;99.90;;;;;;4974229;28;20190;-66
2023/09/08 01:05:48;;;;;;;16.27;11.55;;;19.30;99.90;;;;;;4990079;28;20189;-66
2023/09/08 01:08:14;;;;;;;18.40;12.23;;;19.30;99.90;;;;;;4973385;28;20186;-65
2023/09/08 01:10:42;;;;;;;20.67;12.27;;;19.30;99.90;;;;;;4971422;28;20253;-67
2023/09/08 01:13:09;;;;;;;17.30;12.13;;;19.20;99.90;;;;;;4975307;28;20190;-68
2023/09/08 01:15:35;;;;;;;16.30;12.38;;;19.20;99.90;;;;;;4990544;28;20212;-66
2023/09/08 01:18:00;;;;;;;16.15;11.68;;;19.20;99.90;;;;;;4973573;28;20243;-67
2023/09/08 01:21:01;;;;;;;17.25;12.23;;;19.10;99.90;;;;;;4964194;28;20182;-66
2023/09/08 01:23:56;;;;;;;18.75;12.02;;;19.10;99.90;;;;;;4972310;28;20202;-67
2023/09/08 01:26:30;;;;;;;19.75;12.23;;;19.10;99.90;;;;;;4975416;28;20220;-67
2023/09/08 01:28:57;;;;;;;21.83;12.27;;;19.10;99.90;;;;;;4975118;28;20177;-67
2023/09/08 01:31:24;;;;;;;19.45;12.60;;;19.00;99.90;;;;;;4975244;28;20717;-70
2023/09/08 01:33:50;;;;;;;15.32;12.35;;;19.00;99.90;;;;;;4976382;28;20240;-67
2023/09/08 01:36:16;;;;;;;17.02;12.23;;;18.90;99.90;;;;;;4975859;28;20260;-66
2023/09/08 01:38:42;;;;;;;16.42;12.68;;;18.90;99.90;;;;;;4975044;28;20186;-69
2023/09/08 01:41:09;;;;;;;15.93;11.75;;;18.90;99.90;;;;;;4971380;28;20251;-67
2023/09/08 01:43:35;;;;;;;15.13;12.82;;;18.90;99.90;;;;;;4954505;28;20221;-66
2023/09/08 01:46:01;;;;;;;19.35;12.27;;;18.90;99.90;;;;;;4973580;28;20221;-73
2023/09/08 01:48:27;;;;;;;18.17;12.10;;;18.80;99.90;;;;;;4974366;28;20835;-67
2023/09/08 01:50:53;;;;;;;17.33;12.35;;;18.80;99.90;;;;;;4971149;28;20178;-73
2023/09/08 01:53:19;;;;;;;16.88;12.32;;;18.80;99.90;;;;;;4963332;28;20192;-66
2023/09/08 01:55:45;;;;;;;18.02;12.15;;;18.70;99.90;;;;;;4969686;28;20194;-66
2023/09/08 01:58:11;;;;;;;21.88;12.25;;;18.70;99.90;;;;;;4957782;28;20217;-65
2023/09/08 02:00:37;;;;;;;18.92;12.13;;;18.70;99.90;;;;;;4972765;28;20221;-66
2023/09/08 02:03:03;;;;;;;18.17;12.43;;;18.70;99.90;;;;;;4969844;28;20198;-67
2023/09/08 02:05:30;;;;;;;15.65;13.07;;;18.70;99.90;;;;;;4953283;28;20252;-66
2023/09/08 02:07:57;;;;;;;14.25;12.07;;;18.60;99.90;;;;;;4946060;28;20278;-65
2023/09/08 02:10:23;;;;;;;18.38;12.82;;;18.60;99.90;;;;;;4964128;28;20798;-67
2023/09/08 02:12:48;;;;;;;19.92;13.30;;;18.60;99.90;;;;;;4964062;28;20708;-66
2023/09/08 02:15:17;;;;;;;17.10;12.52;;;18.60;99.90;;;;;;4970650;28;20285;-66
2023/09/08 02:17:43;;;;;;;17.20;12.65;;;18.50;99.90;;;;;;4971999;28;20186;-66
2023/09/08 02:20:10;;;;;;;18.00;13.70;;;18.50;99.90;;;;;;4973048;28;20200;-65
2023/09/08 02:22:36;;;;;;;20.58;12.85;;;18.50;99.90;;;;;;4973168;28;20292;-66
2023/09/08 02:25:02;;;;;;;19.88;12.93;;;18.50;99.90;;;;;;4972218;28;20206;-67
2023/09/08 02:27:28;;;;;;;17.95;13.25;;;18.40;99.90;;;;;;4965985;28;20520;-65
2023/09/08 02:29:55;;;;;;;19.58;12.27;;;18.40;99.90;;;;;;4969221;28;20644;-66
2023/09/08 02:32:21;;;;;;;18.65;12.95;;;18.40;99.90;;;;;;4972483;28;20575;-66
2023/09/08 02:34:48;;;;;;;17.48;12.73;;;18.40;99.90;;;;;;4971936;28;20201;-67
2023/09/08 02:37:14;;;;;;;20.10;13.75;;;18.40;99.90;;;;;;4954767;28;20182;-66
2023/09/08 02:39:40;;;;;;;19.65;13.85;;;18.40;99.90;;;;;;4971775;28;20178;-66
2023/09/08 02:42:06;;;;;;;20.52;13.45;;;18.30;99.90;;;;;;4972323;28;20221;-66
2023/09/08 02:44:32;;;;;;;20.55;14.32;;;18.30;99.90;;;;;;4973226;28;20208;-66
2023/09/08 02:46:58;;;;;;;20.75;14.10;;;18.30;99.90;;;;;;4968769;28;20182;-73
2023/09/08 02:49:25;;;;;;;19.35;13.30;;;18.20;99.90;;;;;;4967189;28;20204;-67
2023/09/08 02:51:51;;;;;;;18.45;13.40;;;18.20;99.90;;;;;;4966687;28;20658;-67
2023/09/08 02:54:17;;;;;;;18.27;13.98;;;18.20;99.90;;;;;;4973091;28;20186;-66
2023/09/08 02:56:43;;;;;;;17.80;14.02;;;18.20;99.90;;;;;;4973036;28;20189;-65
2023/09/08 02:59:09;;;;;;;19.17;13.65;;;18.20;99.90;;;;;;4971499;28;20226;-64
2023/09/08 03:01:37;;;;;;;16.75;13.07;;;18.20;99.90;;;;;;4962245;28;20230;-67
2023/09/08 03:04:03;;;;;;;23.02;14.73;;;18.10;99.90;;;;;;4968373;28;20288;-66
2023/09/08 03:06:30;;;;;;;17.75;13.38;;;18.10;99.90;;;;;;4971812;28;20186;-67
2023/09/08 03:08:58;;;;;;;19.92;13.88;;;18.10;99.90;;;;;;4968804;28;20197;-66
2023/09/08 03:11:24;;;;;;;19.60;14.48;;;18.10;99.90;;;;;;4967309;28;20254;-66
2023/09/08 03:13:50;;;;;;;22.27;14.90;;;18.10;99.90;;;;;;4968060;28;20632;-67
2023/09/08 03:16:16;;;;;;;21.33;14.93;;;18.00;99.90;;;;;;4965261;28;20206;-67
2023/09/08 03:18:42;;;;;;;16.85;13.23;;;18.00;99.90;;;;;;4970308;28;20193;-66
2023/09/08 03:21:11;;;;;;;22.02;13.48;;;18.00;99.90;;;;;;4967664;28;20210;-68
2023/09/08 03:23:39;;;;;;;19.02;14.02;;;18.00;99.90;;;;;;4966984;28;20559;-68
2023/09/08 03:26:06;;;;;;;20.92;13.93;;;18.00;99.90;;;;;;4979102;28;20181;-68
2023/09/08 03:28:33;;;;;;;22.58;14.68;;;17.90;99.90;;;;;;4966278;28;20252;-66
2023/09/08 03:31:01;;;;;;;20.52;14.13;;;17.90;99.90;;;;;;4972967;28;20196;-66
2023/09/08 03:33:27;;;;;;;16.83;14.18;;;17.90;99.90;;;;;;4958819;28;20226;-67
2023/09/08 03:35:52;;;;;;;20.33;15.00;;;17.80;99.90;;;;;;4975632;28;20198;-67
2023/09/08 03:38:19;;;;;;;19.48;14.40;;;17.80;99.90;;;;;;4974510;28;20264;-66
2023/09/08 03:40:45;;;;;;;25.48;15.85;;;17.80;99.90;;;;;;4975588;28;20316;-67
2023/09/08 03:43:10;;;;;;;20.75;15.07;;;17.80;99.90;;;;;;4970802;28;20195;-67
2023/09/08 03:45:36;;;;;;;24.38;15.98;;;17.80;99.90;;;;;;4975398;28;20244;-66
2023/09/08 03:48:03;;;;;;;20.65;15.82;;;17.70;99.90;;;;;;4971936;28;20240;-69
2023/09/08 03:50:29;;;;;;;22.00;15.50;;;17.70;99.90;;;;;;4972166;28;20292;-69
2023/09/08 03:52:56;;;;;;;19.30;15.43;;;17.70;99.90;;;;;;4975383;28;20293;-68
2023/09/08 03:55:23;;;;;;;22.67;15.98;;;17.70;99.90;;;;;;4959284;28;20255;-67
2023/09/08 03:57:49;;;;;;;23.15;16.08;;;17.60;99.90;;;;;;4974730;28;20205;-68
2023/09/08 04:00:19;;;;;;;22.27;15.35;;;17.60;99.90;;;;;;4968039;28;20190;-66
2023/09/08 04:02:45;;;;;;;27.38;16.10;;;17.60;99.90;;;;;;4976080;28;20259;-66
2023/09/08 04:05:11;;;;;;;21.50;15.13;;;17.60;99.90;;;;;;4974753;28;20646;-67
2023/09/08 04:07:38;;;;;;;23.25;16.48;;;17.50;99.90;;;;;;4974945;28;20573;-68
2023/09/08 04:10:04;;;;;;;28.67;16.33;;;17.50;99.90;;;;;;4973019;28;20186;-66
2023/09/08 04:12:30;;;;;;;19.38;15.60;;;17.50;99.90;;;;;;4974662;28;20550;-67
2023/09/08 04:14:57;;;;;;;23.00;16.13;;;17.50;99.90;;;;;;4975564;28;20190;-67
2023/09/08 04:17:23;;;;;;;20.52;15.55;;;17.50;99.90;;;;;;4974215;28;20202;-65
2023/09/08 04:19:49;;;;;;;21.40;15.65;;;17.40;99.90;;;;;;4973498;28;20190;-67
2023/09/08 04:22:15;;;;;;;22.88;16.38;;;17.40;99.90;;;;;;4973226;28;20217;-66
2023/09/08 04:24:41;;;;;;;22.95;17.02;;;17.40;99.90;;;;;;4974810;28;20198;-67
2023/09/08 04:27:08;;;;;;;24.05;17.10;;;17.40;99.90;;;;;;4974685;28;20194;-68
2023/09/08 04:29:35;;;;;;;23.88;16.52;;;17.40;99.90;;;;;;4971787;28;20616;-66
2023/09/08 04:32:01;;;;;;;21.80;16.33;;;17.40;99.90;;;;;;4974268;28;20658;-67
2023/09/08 04:34:28;;;;;;;22.92;16.52;;;17.30;99.90;;;;;;4974350;28;20194;-66
2023/09/08 04:36:54;;;;;;;23.20;17.13;;;17.30;99.90;;;;;;4958362;28;20193;-66
2023/09/08 04:39:20;;;;;;;25.05;16.67;;;17.30;99.90;;;;;;4974717;28;20269;-66
2023/09/08 04:41:46;;;;;;;24.33;17.08;;;17.30;99.90;;;;;;4968916;28;20293;-67
2023/09/08 04:44:12;;;;;;;23.00;16.55;;;17.20;99.90;;;;;;4981507;28;20194;-67
2023/09/08 04:46:38;;;;;;;30.13;17.02;;;17.20;99.90;;;;;;4971652;28;20224;-69
2023/09/08 04:49:04;;;;;;;22.70;17.52;;;17.20;99.90;;;;;;4974574;28;20665;-67
2023/09/08 04:51:30;;;;;;;23.40;17.13;;;17.20;99.90;;;;;;4973889;28;20186;-66
2023/09/08 04:53:56;;;;;;;23.58;17.98;;;17.20;99.90;;;;;;4973225;28;20233;-67
2023/09/08 04:56:22;;;;;;;30.63;19.75;;;17.20;99.90;;;;;;4974104;28;20217;-65
2023/09/08 04:58:48;;;;;;;30.60;17.92;;;17.20;99.90;;;;;;4973809;28;20201;-66
2023/09/08 05:01:14;;;;;;;25.80;18.42;;;17.10;99.90;;;;;;4956404;28;20206;-66
2023/09/08 05:03:41;;;;;;;29.50;20.38;;;17.10;99.90;;;;;;4970224;28;20194;-70
2023/09/08 05:06:07;;;;;;;30.73;21.58;;;17.10;99.90;;;;;;4973491;28;20182;-68
2023/09/08 05:08:33;;;;;;;27.50;18.23;;;17.10;99.90;;;;;;4971827;28;20204;-67
2023/09/08 05:10:59;;;;;;;24.88;17.73;;;17.10;99.90;;;;;;4974274;28;20237;-67
2023/09/08 05:13:26;;;;;;;25.25;19.65;;;17.10;99.90;;;;;;4967402;28;20658;-73
2023/09/08 05:15:59;;;;;;;28.10;18.88;;;17.10;99.90;;;;;;4965833;28;20198;-65
2023/09/08 05:18:27;;;;;;;26.45;18.67;;;17.10;99.90;;;;;;4969348;28;20182;-64
2023/09/08 05:20:54;;;;;;;31.33;18.88;;;17.10;99.90;;;;;;4969504;28;20205;-65
2023/09/08 05:23:20;;;;;;;31.60;18.77;;;17.10;99.90;;;;;;4979463;28;20205;-66
2023/09/08 05:25:46;;;;;;;30.27;18.45;;;17.10;99.90;;;;;;4960266;28;20229;-70
2023/09/08 05:28:12;;;;;;;26.45;18.90;;;17.20;99.90;;;;;;4992473;28;20239;-66
2023/09/08 05:30:38;;;;;;;28.58;18.00;;;17.20;99.90;;;;;;4975166;28;20662;-66
2023/09/08 05:33:05;;;;;;;27.23;19.45;;;17.20;99.90;;;;;;4954786;28;20190;-66
2023/09/08 05:35:31;;;;;;;30.77;20.23;;;17.20;99.90;;;;;;4986993;28;20204;-65
2023/09/08 05:37:57;;;;;;;25.10;18.83;;;17.20;99.90;;;;;;4976628;28;21065;-63
2023/09/08 05:40:24;;;;;;;26.52;17.63;;;17.30;99.90;;;;;;4964350;28;20197;-65
2023/09/08 05:42:51;;;;;;;31.00;18.88;;;17.30;99.90;;;;;;4973037;28;20237;-71
2023/09/08 05:45:17;;;;;;;26.15;18.50;;;17.30;99.90;;;;;;4971173;28;20255;-66
2023/09/08 05:47:43;;;;;;;24.73;17.77;;;17.40;99.90;;;;;;4967212;28;20190;-69
2023/09/08 05:50:10;;;;;;;25.88;17.08;;;17.40;99.90;;;;;;4982669;28;20197;-66
2023/09/08 05:52:36;;;;;;;26.00;17.77;;;17.40;99.90;;;;;;4964740;28;20182;-66
2023/09/08 05:55:03;;;;;;;25.40;18.05;;;17.50;99.90;;;;;;4967827;28;20271;-67
2023/09/08 05:57:29;;;;;;;27.63;17.95;;;17.50;99.90;;;;;;4966624;28;21777;-68
2023/09/08 05:59:55;;;;;;;27.10;17.65;;;17.50;99.90;;;;;;4952359;28;20270;-65
2023/09/08 06:02:21;;;;;;;26.88;17.50;;;17.60;99.90;;;;;;4970972;28;20697;-65
2023/09/08 06:04:47;;;;;;;32.75;17.45;;;17.60;99.90;;;;;;4974283;28;20209;-69
2023/09/08 06:07:13;;;;;;;27.27;18.20;;;17.70;99.90;;;;;;4974479;28;20186;-71
2023/09/08 06:09:39;;;;;;;22.38;16.90;;;17.70;99.90;;;;;;4973016;28;20197;-69
2023/09/08 06:12:06;;;;;;;27.55;17.90;;;17.80;99.90;;;;;;4968619;28;20694;-66
2023/09/08 06:14:31;;;;;;;21.88;17.33;;;17.80;99.90;;;;;;4965326;28;20182;-67
2023/09/08 06:16:57;;;;;;;21.52;16.63;;;17.90;99.90;;;;;;4970519;28;20755;-68
2023/09/08 06:19:23;;;;;;;24.52;16.40;;;17.90;99.90;;;;;;4957161;28;20201;-69
2023/09/08 06:21:50;;;;;;;27.90;17.20;;;18.00;99.90;;;;;;4971899;28;20312;-70
2023/09/08 06:24:16;;;;;;;27.35;18.27;;;18.00;99.90;;;;;;4968619;28;20249;-68
2023/09/08 06:26:44;;;;;;;27.05;16.42;;;18.10;99.90;;;;;;4975266;28;20226;-67
2023/09/08 06:29:10;;;;;;;22.88;16.73;;;18.10;99.90;;;;;;4967714;28;20696;-68
2023/09/08 06:31:37;;;;;;;24.92;16.23;;;18.20;99.90;;;;;;4969004;28;20197;-67
2023/09/08 06:34:03;;;;;;;20.90;15.80;;;18.30;99.90;;;;;;4968425;28;20679;-69
2023/09/08 06:36:28;;;;;;;29.00;15.85;;;18.40;99.90;;;;;;4956281;28;20186;-69
2023/09/08 06:38:55;;;;;;;21.58;15.80;;;18.40;99.90;;;;;;4971330;28;20243;-67
2023/09/08 06:41:22;;;;;;;25.65;16.20;;;18.50;99.90;;;;;;4954533;28;20213;-69
2023/09/08 06:43:49;;;;;;;24.08;15.35;;;18.60;99.90;;;;;;4956864;28;20216;-67
2023/09/08 06:46:20;;;;;;;21.90;15.35;;;18.60;99.90;;;;;;4975341;28;20186;-69
2023/09/08 06:48:47;;;;;;;26.85;15.82;;;18.70;99.90;;;;;;4969990;28;20240;-67
2023/09/08 06:51:14;;;;;;;24.70;15.95;;;18.80;99.90;;;;;;4967878;28;20248;-63
2023/09/08 06:53:42;;;;;;;23.65;15.95;;;18.80;99.90;;;;;;4969677;28;20256;-69
2023/09/08 06:56:08;;;;;;;19.63;15.20;;;18.90;99.90;;;;;;4973691;28;20309;-67
2023/09/08 06:58:34;;;;;;;22.45;15.23;;;19.00;99.90;;;;;;4972350;28;20588;-68
2023/09/08 07:01:00;;;;;;;21.27;15.48;;;19.00;99.90;;;;;;4967475;28;20202;-66
2023/09/08 07:03:27;;;;;;;27.13;15.85;;;19.10;99.90;;;;;;4964085;28;20325;-67
2023/09/08 07:05:53;;;;;;;24.52;15.50;;;19.20;99.90;;;;;;4966120;28;20178;-65
2023/09/08 07:08:21;;;;;;;27.38;14.95;;;19.30;99.90;;;;;;4970238;28;20646;-68
2023/09/08 07:10:52;;;;;;;20.38;15.52;;;19.40;99.90;;;;;;4969179;28;20265;-68
2023/09/08 07:13:18;;;;;;;30.17;14.95;;;19.40;99.90;;;;;;4964823;28;20182;-67
2023/09/08 07:15:45;;;;;;;24.00;15.02;;;19.50;99.90;;;;;;4970997;28;20244;-68
2023/09/08 07:18:11;;;;;;;18.55;14.20;;;19.60;99.90;;;;;;4970776;28;20189;-68
2023/09/08 07:20:37;;;;;;;23.65;14.90;;;19.70;99.90;;;;;;4971993;28;20200;-68
2023/09/08 07:23:03;;;;;;;19.05;15.02;;;19.70;99.90;;;;;;4963315;28;20190;-67
2023/09/08 07:25:30;;;;;;;21.80;15.25;;;19.80;99.90;;;;;;4966761;28;20181;-68
2023/09/08 07:27:56;;;;;;;18.85;14.65;;;19.90;99.90;;;;;;4969217;28;20200;-68
2023/09/08 07:30:22;;;;;;;19.52;14.63;;;20.00;99.90;;;;;;4971788;28;20328;-66
2023/09/08 07:32:49;;;;;;;23.10;14.68;;;20.00;99.90;;;;;;4971914;28;20208;-68
2023/09/08 07:35:16;;;;;;;22.23;14.00;;;20.10;99.90;;;;;;4973121;28;20638;-67
2023/09/08 07:37:44;;;;;;;20.75;14.55;;;20.20;99.90;;;;;;4971356;28;20201;-68
2023/09/08 07:40:11;;;;;;;30.00;14.48;;;20.30;99.90;;;;;;4971813;28;20193;-68
2023/09/08 07:42:37;;;;;;;25.88;15.82;;;20.40;99.90;;;;;;4955824;28;20222;-69
2023/09/08 07:45:04;;;;;;;26.48;13.90;;;20.40;99.90;;;;;;4954612;28;20213;-67
2023/09/08 07:47:31;;;;;;;27.50;15.70;;;20.50;99.90;;;;;;4969669;28;20193;-70
2023/09/08 07:50:19;;;;;;;24.10;13.45;;;20.60;99.90;;;;;;4963265;28;20229;-69
2023/09/08 07:52:46;;;;;;;21.60;14.30;;;20.70;99.90;;;;;;4971591;28;20190;-70
2023/09/08 07:55:12;;;;;;;17.77;13.57;;;20.80;99.90;;;;;;4970425;28;20193;-69
2023/09/08 07:57:38;;;;;;;17.42;12.23;;;20.90;99.90;;;;;;4970672;28;20754;-68
2023/09/08 08:00:05;;;;;;;23.02;12.90;;;21.00;99.90;;;;;;4970924;28;20190;-66
2023/09/08 08:02:45;;;;;;;20.80;12.57;;;21.10;99.90;;;;;;4985855;28;20300;-67
2023/09/08 08:05:11;;;;;;;21.70;12.00;;;21.20;99.90;;;;;;4971608;28;20197;-67
2023/09/08 08:07:38;;;;;;;19.90;11.20;;;21.30;99.90;;;;;;4963745;28;20968;-67
2023/09/08 08:10:05;;;;;;;19.48;11.90;;;21.30;99.90;;;;;;4970721;28;20193;-66
2023/09/08 08:12:31;;;;;;;22.25;12.15;;;21.40;99.90;;;;;;4960019;28;20245;-68
2023/09/08 08:14:58;;;;;;;16.40;11.25;;;21.50;99.90;;;;;;4972530;28;20200;-66
2023/09/08 08:17:27;;;;;;;15.30;11.45;;;21.50;99.90;;;;;;4978781;28;20291;-67
2023/09/08 08:19:54;;;;;;;17.15;13.25;;;21.70;99.90;;;;;;4994544;28;20552;-66
2023/09/08 08:22:20;;;;;;;17.38;11.40;;;21.70;99.90;;;;;;4976859;28;20238;-68
2023/09/08 08:24:46;;;;;;;16.38;11.52;;;21.80;99.90;;;;;;4970206;28;20198;-68
2023/09/08 08:27:12;;;;;;;24.15;12.40;;;21.90;99.90;;;;;;4976975;28;20193;-68
2023/09/08 08:29:39;;;;;;;19.55;10.00;;;21.90;99.90;;;;;;4955116;28;20190;-67
2023/09/08 08:32:09;;;;;;;15.32;8.80;;;22.00;99.90;;;;;;4979459;28;20202;-68
2023/09/08 08:34:35;;;;;;;20.77;10.48;;;22.10;99.90;;;;;;4967373;28;20225;-65
2023/09/08 08:37:01;;;;;;;20.67;9.57;;;22.10;99.90;;;;;;4950681;28;20355;-66
2023/09/08 08:39:28;;;;;;;27.55;16.73;;;22.20;99.90;;;;;;4983137;28;20930;-66
2023/09/08 08:41:54;;;;;;;24.00;8.15;;;22.30;99.90;;;;;;4979301;28;20407;-71
2023/09/08 08:44:21;;;;;;;20.23;7.85;;;22.40;99.90;;;;;;4979799;28;20202;-65
2023/09/08 08:46:47;;;;;;;18.38;8.90;;;22.50;99.90;;;;;;4970102;28;20186;-67
2023/09/08 08:49:15;;;;;;;13.43;8.50;;;22.60;99.90;;;;;;4968874;28;20295;-69
2023/09/08 08:51:45;;;;;;;15.68;7.90;;;22.70;99.90;;;;;;4972969;28;20681;-66
2023/09/08 08:54:15;;;;;;;15.25;8.15;;;22.80;99.90;;;;;;4972129;28;20236;-67
2023/09/08 08:56:42;;;;;;;12.68;7.38;;;22.90;99.90;;;;;;4975303;28;20196;-69
2023/09/08 08:59:09;;;;;;;19.58;7.22;;;23.00;99.90;;;;;;4969149;28;20193;-70
2023/09/08 09:01:35;;;;;;;16.80;7.13;;;23.10;99.90;;;;;;4974617;28;20215;-66
2023/09/08 09:04:05;;;;;;;12.20;7.28;;;23.10;99.90;;;;;;4983726;28;20197;-68
2023/09/08 09:06:32;;;;;;;12.95;7.38;;;23.20;99.90;;;;;;4981022;28;20190;-66
2023/09/08 09:08:59;;;;;;;11.10;6.95;;;23.40;99.90;;;;;;4979602;28;20188;-62
2023/09/08 09:11:25;;;;;;;13.43;6.30;;;23.50;99.90;;;;;;4969425;28;20235;-66
2023/09/08 09:13:51;;;;;;;9.45;6.32;;;23.60;99.90;;;;;;4978577;28;20532;-65
2023/09/08 09:16:17;;;;;;;12.02;6.68;;;23.70;99.90;;;;;;4976757;28;20205;-73
2023/09/08 09:18:59;;;;;;;11.35;6.78;;;23.80;99.90;;;;;;4971497;28;20189;-69
2023/09/08 09:21:50;;;;;;;10.82;6.75;;;23.90;99.90;;;;;;4978332;28;20323;-65
2023/09/08 09:24:27;;;;;;;19.02;7.90;;;24.00;99.90;;;;;;4973916;28;20186;-67
2023/09/08 09:26:53;;;;;;;10.60;6.30;;;24.00;99.90;;;;;;4971674;28;20190;-68
2023/09/08 09:29:19;;;;;;;10.88;6.78;;;24.20;99.90;;;;;;4967422;28;20189;-68
2023/09/08 09:32:07;;;;;;;18.23;6.60;;;24.20;99.90;;;;;;4973847;28;20565;-70
2023/09/08 09:34:34;;;;;;;12.10;7.13;;;24.30;99.90;;;;;;4972923;28;20200;-66
2023/09/08 09:37:00;;;;;;;11.50;6.35;;;24.40;99.90;;;;;;4971985;28;20182;-66
2023/09/08 09:39:27;;;;;;;12.20;7.13;;;24.40;99.90;;;;;;4967290;28;20646;-63
2023/09/08 09:41:57;;;;;;;17.05;6.88;;;24.50;99.90;;;;;;4973911;28;20285;-68
2023/09/08 09:44:24;;;;;;;14.02;6.75;;;24.60;99.90;;;;;;4967787;28;20407;-65
2023/09/08 09:46:54;;;;;;;13.90;7.43;;;24.70;99.90;;;;;;4965485;28;20190;-74
2023/09/08 09:49:20;;;;;;;10.63;6.28;;;24.80;99.90;;;;;;4972330;28;20189;-67
2023/09/08 09:51:47;;;;;;;11.30;6.53;;;24.80;99.90;;;;;;4972628;28;20189;-64
2023/09/08 09:54:14;;;;;;;12.85;6.75;;;24.90;99.90;;;;;;4972200;28;20189;-66
2023/09/08 09:56:41;;;;;;;19.65;7.82;;;25.00;99.90;;;;;;4973612;28;20214;-66
2023/09/08 09:59:08;;;;;;;14.30;6.68;;;25.10;99.90;;;;;;4968132;28;20237;-67
2023/09/08 10:01:36;;;;;;;14.02;6.43;;;25.10;99.90;;;;;;4966520;28;20301;-72
2023/09/08 10:04:03;;;;;;;12.30;6.65;;;25.20;99.90;;;;;;4969103;28;20229;-66
2023/09/08 10:06:34;;;;;;;10.57;6.20;;;25.30;99.90;;;;;;4972767;28;20192;-65
2023/09/08 10:09:04;;;;;;;9.20;6.00;;;25.40;99.90;;;;;;4971610;28;20193;-65
2023/09/08 10:11:37;;;;;;;13.48;6.60;;;25.60;99.90;;;;;;4973196;28;20674;-70
2023/09/08 10:14:04;;;;;;;12.10;6.57;;;25.70;99.90;;;;;;4973046;28;20192;-65
2023/09/08 10:16:34;;;;;;;12.10;6.40;;;25.70;99.90;;;;;;4973329;28;20201;-69
2023/09/08 10:19:04;;;;;;;9.10;5.97;;;25.80;99.90;;;;;;4971863;28;20186;-65
2023/09/08 10:21:32;;;;;;;10.27;5.93;;;25.80;99.90;;;;;;4966036;28;20248;-70
2023/09/08 10:24:23;;;;;;;11.43;6.18;;;25.80;99.90;;;;;;4968136;28;20236;-68
2023/09/08 10:27:09;;;;;;;13.13;6.25;;;25.90;99.90;;;;;;4969331;28;20221;-66
2023/09/08 10:29:36;;;;;;;13.30;8.05;;;26.00;99.90;;;;;;4972871;28;20178;-68
2023/09/08 10:32:04;;;;;;;12.02;7.07;;;26.10;99.90;;;;;;4971862;28;20634;-70
2023/09/08 10:34:32;;;;;;;11.65;6.53;;;26.20;99.90;;;;;;4973022;28;20190;-66
2023/09/08 10:36:57;;;;;;;8.73;6.10;;;26.30;99.90;;;;;;4969676;28;20193;-68
2023/09/08 10:39:50;;;;;;;13.02;7.40;;;26.40;99.90;;;;;;4969818;28;20190;-68
2023/09/08 10:42:16;;;;;;;13.63;6.35;;;26.40;99.90;;;;;;4959671;28;20232;-68
2023/09/08 10:44:51;;;;;;;9.98;6.03;;;26.50;99.90;;;;;;4965863;28;20190;-67
2023/09/08 10:47:36;;;;;;;7.55;5.47;;;26.60;99.90;;;;;;4968389;28;20178;-64
2023/09/08 10:50:03;;;;;;;14.70;7.45;;;26.60;99.90;;;;;;4970023;28;20264;-69
2023/09/08 10:52:29;;;;;;;12.73;6.63;;;26.70;99.90;;;;;;4967915;28;20236;-70
2023/09/08 10:54:56;;;;;;;13.57;6.40;;;26.80;99.90;;;;;;4964490;28;20257;-68
2023/09/08 10:57:24;;;;;;;13.73;6.47;;;26.90;99.90;;;;;;4971493;28;20213;-71
2023/09/08 10:59:56;;;;;;;8.85;6.20;;;26.90;99.90;;;;;;4968456;28;20220;-68
2023/09/08 11:02:47;;;;;;;12.32;6.28;;;27.00;99.90;;;;;;4970709;28;20642;-69
2023/09/08 11:05:15;;;;;;;13.70;6.75;;;27.00;99.90;;;;;;4972875;28;20634;-67
2023/09/08 11:07:43;;;;;;;11.55;6.00;;;27.10;99.90;;;;;;4969459;28;20189;-72
2023/09/08 11:10:10;;;;;;;11.00;5.65;;;27.10;99.90;;;;;;4964135;28;20315;-69
2023/09/08 11:12:37;;;;;;;10.57;5.88;;;27.20;99.80;;;;;;4961263;28;20291;-68
2023/09/08 11:15:05;;;;;;;9.57;5.53;;;27.20;99.40;;;;;;4963685;28;20194;-69
2023/09/08 11:17:33;;;;;;;12.40;6.45;;;27.30;99.00;;;;;;4959797;28;20193;-69
2023/09/08 11:20:01;;;;;;;7.82;5.38;;;27.40;99.00;;;;;;4966329;28;20186;-69
2023/09/08 11:22:27;;;;;;;14.13;5.80;;;27.40;98.90;;;;;;4971421;28;20272;-68
2023/09/08 11:24:56;;;;;;;11.68;5.93;;;27.50;98.60;;;;;;4972468;28;20264;-68
2023/09/08 11:27:23;;;;;;;11.43;5.68;;;27.60;98.30;;;;;;4969755;28;20212;-70
2023/09/08 11:29:50;;;;;;;13.93;7.45;;;27.60;98.20;;;;;;4964321;28;20249;-68
2023/09/08 11:32:16;;;;;;;9.13;5.43;;;27.70;98.10;;;;;;4967379;28;20188;-68
2023/09/08 11:34:42;;;;;;;11.07;5.80;;;27.80;97.90;;;;;;4961018;28;20281;-66
2023/09/08 11:37:15;;;;;;;7.65;5.90;;;27.80;97.70;;;;;;4972487;28;20181;-74
2023/09/08 11:39:43;;;;;;;12.98;5.60;;;27.80;97.40;;;;;;4960878;28;20248;-69
2023/09/08 11:42:11;;;;;;;10.73;5.22;;;27.90;97.00;;;;;;4960739;28;20541;-69
2023/09/08 11:44:38;;;;;;;10.10;5.68;;;28.00;96.60;;;;;;4970922;28;20193;-68
2023/09/08 11:47:07;;;;;;;11.48;6.30;;;28.00;96.30;;;;;;4969148;28;20185;-75
2023/09/08 11:49:37;;;;;;;17.38;5.63;;;28.00;96.00;;;;;;4971712;28;20264;-70
2023/09/08 11:52:04;;;;;;;9.40;5.50;;;28.10;95.90;;;;;;4971341;28;20704;-68
2023/09/08 11:54:35;;;;;;;8.02;5.35;;;28.20;95.60;;;;;;4958811;28;20208;-68
2023/09/08 11:57:03;;;;;;;8.98;5.50;;;28.20;95.10;;;;;;4973747;28;20268;-68
2023/09/08 11:59:32;;;;;;;11.63;5.53;;;28.30;94.90;;;;;;4973868;28;20181;-67
2023/09/08 12:01:59;;;;;;;7.40;5.28;;;28.30;94.70;;;;;;4967249;28;20249;-67
2023/09/08 12:04:25;;;;;;;13.77;6.70;;;28.40;94.00;;;;;;4972208;28;20201;-68
2023/09/08 12:06:53;;;;;;;15.90;5.90;;;28.40;93.70;;;;;;4973889;28;20204;-68
2023/09/08 12:09:23;;;;;;;8.48;5.35;;;28.50;93.60;;;;;;4966532;28;20264;-67
2023/09/08 12:11:50;;;;;;;11.10;4.90;;;28.50;92.40;;;;;;4969191;28;20228;-68
2023/09/08 12:14:16;;;;;;;12.93;5.55;;;28.60;91.60;;;;;;4964002;28;20181;-70
2023/09/08 12:16:42;;;;;;;11.93;5.55;;;28.50;91.50;;;;;;4975947;28;20247;-69
2023/09/08 12:19:28;;;;;;;7.93;4.82;;;28.60;91.70;;;;;;4973264;28;20220;-68
2023/09/08 12:21:59;;;;;;;9.48;5.30;;;28.70;91.60;;;;;;4974680;28;20254;-68
2023/09/08 12:24:53;;;;;;;10.60;5.78;;;28.70;91.00;;;;;;4962735;28;20173;-69
2023/09/08 12:27:20;;;;;;;15.57;5.70;;;28.70;90.50;;;;;;4975070;28;20708;-69
2023/09/08 12:30:00;;;;;;;10.88;5.30;;;28.80;89.30;;;;;;4966019;28;20198;-69
2023/09/08 12:32:29;;;;;;;8.82;5.47;;;28.80;86.70;;;;;;4963010;28;20195;-68
2023/09/08 12:34:55;;;;;;;11.65;6.03;;;28.80;87.30;;;;;;4982033;28;20598;-68